createdAt,value
2023-05-09T00:00:01.718Z,6.6
2023-05-09T00:01:01.754Z,6.6
2023-05-09T00:02:01.424Z,6.6
2023-05-09T00:03:01.445Z,6.5
2023-05-09T00:04:01.347Z,6.5
2023-05-09T00:05:01.318Z,6.4
2023-05-09T00:06:02.290Z,6.5
2023-05-09T00:07:02.167Z,6.4
2023-05-09T00:08:02.213Z,6.4
2023-05-09T00:09:02.092Z,6.4
2023-05-09T00:10:02.109Z,6.7
2023-05-09T00:11:02.014Z,6.7
2023-05-09T00:12:02.080Z,6.4
2023-05-09T00:13:02.010Z,6.3
2023-05-09T00:14:02.050Z,6.3
2023-05-09T00:15:02.135Z,6.3
2023-05-09T00:16:02.007Z,6.5
2023-05-09T00:17:02.043Z,6.4
2023-05-09T00:18:02.108Z,6.5
2023-05-09T00:19:01.963Z,6.4
2023-05-09T00:20:01.894Z,6.4
2023-05-09T00:21:01.945Z,6.3
2023-05-09T00:22:01.867Z,6.3
2023-05-09T00:23:01.833Z,6.3
2023-05-09T00:24:01.882Z,6.3
2023-05-09T00:25:01.766Z,6.3
2023-05-09T00:26:01.805Z,6.2
2023-05-09T00:27:01.766Z,6.2
2023-05-09T00:28:01.644Z,6.3
2023-05-09T00:29:01.608Z,6.5
2023-05-09T00:30:01.600Z,6.4
2023-05-09T00:31:01.470Z,6.6
2023-05-09T00:32:01.360Z,6.7
2023-05-09T00:33:01.349Z,6.7
2023-05-09T00:34:02.342Z,6.5
2023-05-09T00:35:02.253Z,6.6
2023-05-09T00:36:02.257Z,6.6
2023-05-09T00:37:02.161Z,6.6
2023-05-09T00:38:02.256Z,6.5
2023-05-09T00:39:02.097Z,6.5
2023-05-09T00:40:02.176Z,6.4
2023-05-09T00:41:02.044Z,6.4
2023-05-09T00:42:02.093Z,6.3
2023-05-09T00:43:01.949Z,6.3
2023-05-09T00:44:01.988Z,6.2
2023-05-09T00:45:02.035Z,6.4
2023-05-09T00:46:01.899Z,6.4
2023-05-09T00:47:01.842Z,6.3
2023-05-09T00:48:01.944Z,6.2
2023-05-09T00:49:01.758Z,6.2
2023-05-09T00:50:01.795Z,6.2
2023-05-09T00:51:01.640Z,6.1
2023-05-09T00:52:01.704Z,6
2023-05-09T00:53:01.539Z,6.1
2023-05-09T00:54:01.592Z,6.3
2023-05-09T00:55:01.436Z,6.2
2023-05-09T00:56:01.488Z,6.1
2023-05-09T00:57:01.338Z,6
2023-05-09T00:58:01.391Z,6.3
2023-05-09T00:59:02.290Z,6.2
2023-05-09T01:00:02.244Z,6.3
2023-05-09T01:01:01.403Z,6.1
2023-05-09T01:02:02.167Z,6
2023-05-09T01:03:02.159Z,5.9
2023-05-09T01:04:02.158Z,5.8
2023-05-09T01:05:02.071Z,5.9
2023-05-09T01:06:02.183Z,5.8
2023-05-09T01:07:02.090Z,5.7
2023-05-09T01:08:02.122Z,5.8
2023-05-09T01:09:01.969Z,5.8
2023-05-09T01:10:01.970Z,6
2023-05-09T01:11:02.027Z,5.9
2023-05-09T01:12:01.893Z,5.8
2023-05-09T01:13:02.032Z,5.8
2023-05-09T01:14:01.869Z,5.7
2023-05-09T01:15:01.800Z,5.9
2023-05-09T01:16:01.733Z,5.9
2023-05-09T01:17:01.739Z,5.8
2023-05-09T01:18:01.748Z,5.8
2023-05-09T01:19:01.613Z,5.9
2023-05-09T01:20:01.674Z,6
2023-05-09T01:21:01.504Z,5.9
2023-05-09T01:22:01.491Z,6
2023-05-09T01:23:01.388Z,5.9
2023-05-09T01:24:01.483Z,5.7
2023-05-09T01:25:01.239Z,5.6
2023-05-09T01:26:02.317Z,5.7
2023-05-09T01:27:02.239Z,5.6
2023-05-09T01:28:02.325Z,5.7
2023-05-09T01:29:02.279Z,5.7
2023-05-09T01:30:02.347Z,5.6
2023-05-09T01:31:01.337Z,5.6
2023-05-09T01:32:02.209Z,5.7
2023-05-09T01:33:02.323Z,5.7
2023-05-09T01:34:02.152Z,5.6
2023-05-09T01:35:02.184Z,5.6
2023-05-09T01:36:02.057Z,5.6
2023-05-09T01:37:02.145Z,5.9
2023-05-09T01:38:02.027Z,5.7
2023-05-09T01:39:02.045Z,5.6
2023-05-09T01:40:01.930Z,5.7
2023-05-09T01:41:01.925Z,5.6
2023-05-09T01:42:01.992Z,5.6
2023-05-09T01:43:01.862Z,5.5
2023-05-09T01:44:01.814Z,5.5
2023-05-09T01:45:01.835Z,5.7
2023-05-09T01:46:01.704Z,5.6
2023-05-09T01:47:01.541Z,5.5
2023-05-09T01:48:01.556Z,5.5
2023-05-09T01:49:01.430Z,5.5
2023-05-09T01:50:01.424Z,5.5
2023-05-09T01:51:01.256Z,5.5
2023-05-09T01:52:02.300Z,5.4
2023-05-09T01:53:02.244Z,5.5
2023-05-09T01:54:02.299Z,5.3
2023-05-09T01:55:02.293Z,5.5
2023-05-09T01:56:01.372Z,5.4
2023-05-09T01:57:02.387Z,5.5
2023-05-09T01:58:02.275Z,5.5
2023-05-09T01:59:02.290Z,5.4
2023-05-09T02:00:02.208Z,5.4
2023-05-09T02:01:02.406Z,5.3
2023-05-09T02:02:02.043Z,5.5
2023-05-09T02:03:02.139Z,5.4
2023-05-09T02:04:02.077Z,5.5
2023-05-09T02:05:02.061Z,5.3
2023-05-09T02:06:01.964Z,5.3
2023-05-09T02:07:01.922Z,5.5
2023-05-09T02:08:01.941Z,5.6
2023-05-09T02:09:01.874Z,5.5
2023-05-09T02:10:01.830Z,5.4
2023-05-09T02:11:01.881Z,5.4
2023-05-09T02:12:01.736Z,5.5
2023-05-09T02:13:01.815Z,5.4
2023-05-09T02:14:01.629Z,5.4
2023-05-09T02:15:01.794Z,5.4
2023-05-09T02:16:01.568Z,5.4
2023-05-09T02:17:01.679Z,5.4
2023-05-09T02:18:01.643Z,5.4
2023-05-09T02:19:01.508Z,5.4
2023-05-09T02:20:01.599Z,5.3
2023-05-09T02:21:01.433Z,5.4
2023-05-09T02:22:01.349Z,5.4
2023-05-09T02:23:01.286Z,5.4
2023-05-09T02:24:02.341Z,5.3
2023-05-09T02:25:02.228Z,5.3
2023-05-09T02:26:02.349Z,5.4
2023-05-09T02:27:02.218Z,5.4
2023-05-09T02:28:02.293Z,5.4
2023-05-09T02:29:02.209Z,5.4
2023-05-09T02:30:02.280Z,5.4
2023-05-09T02:31:02.196Z,5.3
2023-05-09T02:32:02.222Z,5.4
2023-05-09T02:33:02.365Z,5.3
2023-05-09T02:34:02.260Z,5.4
2023-05-09T02:35:02.335Z,5.3
2023-05-09T02:36:02.244Z,5.5
2023-05-09T02:37:02.301Z,5.4
2023-05-09T02:38:02.270Z,5.4
2023-05-09T02:39:01.326Z,5.3
2023-05-09T02:40:01.245Z,5.5
2023-05-09T02:41:02.350Z,5.3
2023-05-09T02:42:01.281Z,5.4
2023-05-09T02:43:02.351Z,5.2
2023-05-09T02:44:02.229Z,5.3
2023-05-09T02:45:02.342Z,5.4
2023-05-09T02:46:02.253Z,5.4
2023-05-09T02:47:01.293Z,5.2
2023-05-09T02:48:02.377Z,5.1
2023-05-09T02:49:02.265Z,5.1
2023-05-09T02:50:02.276Z,5.4
2023-05-09T02:51:02.157Z,5.2
2023-05-09T02:52:02.237Z,5.1
2023-05-09T02:53:02.107Z,5.1
2023-05-09T02:54:02.241Z,5.1
2023-05-09T02:55:02.226Z,5.2
2023-05-09T02:56:02.111Z,5.3
2023-05-09T02:57:02.051Z,5.2
2023-05-09T02:58:13.195Z,5.3
2023-05-09T02:59:01.696Z,5.3
2023-05-09T03:00:03.513Z,5.3
2023-05-09T03:01:01.389Z,5.3
2023-05-09T03:02:01.549Z,5.3
2023-05-09T03:03:01.601Z,5.1
2023-05-09T03:04:01.468Z,5.1
2023-05-09T03:05:01.532Z,5.2
2023-05-09T03:06:01.463Z,5.1
2023-05-09T03:07:01.309Z,5.3
2023-05-09T03:08:02.368Z,5.4
2023-05-09T03:09:01.280Z,5.2
2023-05-09T03:10:02.330Z,5.4
2023-05-09T03:11:02.262Z,5.2
2023-05-09T03:12:02.281Z,5.3
2023-05-09T03:13:02.252Z,5.2
2023-05-09T03:14:02.324Z,5.2
2023-05-09T03:15:02.265Z,5.4
2023-05-09T03:16:02.259Z,5.3
2023-05-09T03:17:02.091Z,5.1
2023-05-09T03:18:02.204Z,5.2
2023-05-09T03:19:02.080Z,5
2023-05-09T03:20:04.211Z,5.1
2023-05-09T03:21:02.188Z,5.2
2023-05-09T03:22:02.257Z,5.1
2023-05-09T03:23:02.114Z,5.1
2023-05-09T03:24:02.237Z,5.3
2023-05-09T03:25:02.169Z,5.3
2023-05-09T03:26:02.216Z,5.3
2023-05-09T03:27:02.082Z,5.3
2023-05-09T03:28:02.126Z,5.3
2023-05-09T03:29:02.040Z,5.3
2023-05-09T03:30:02.069Z,5.3
2023-05-09T03:31:01.972Z,5.4
2023-05-09T03:32:01.829Z,5.5
2023-05-09T03:33:01.931Z,5.2
2023-05-09T03:34:01.738Z,5.3
2023-05-09T03:35:01.756Z,5.2
2023-05-09T03:36:01.598Z,5.1
2023-05-09T03:37:01.645Z,5
2023-05-09T03:38:01.493Z,5.2
2023-05-09T03:39:01.535Z,5.1
2023-05-09T03:40:01.426Z,5.3
2023-05-09T03:41:01.445Z,5.1
2023-05-09T03:42:01.310Z,5.1
2023-05-09T03:43:02.368Z,5.3
2023-05-09T03:44:02.256Z,5.3
2023-05-09T03:45:02.334Z,5.4
2023-05-09T03:46:02.250Z,5.4
2023-05-09T03:47:02.136Z,5.4
2023-05-09T03:48:01.910Z,5.2
2023-05-09T03:49:01.770Z,5.3
2023-05-09T03:50:01.822Z,5.2
2023-05-09T03:51:01.704Z,5.3
2023-05-09T03:52:01.664Z,5.3
2023-05-09T03:53:01.582Z,5.2
2023-05-09T03:54:01.582Z,5.3
2023-05-09T03:55:01.442Z,5.4
2023-05-09T03:56:01.453Z,5.5
2023-05-09T03:57:01.360Z,5.6
2023-05-09T03:58:01.406Z,5.5
2023-05-09T03:59:01.271Z,5.5
2023-05-09T04:00:02.460Z,5.5
2023-05-09T04:01:01.309Z,5.6
2023-05-09T04:02:01.453Z,5.6
2023-05-09T04:03:01.413Z,5.6
2023-05-09T04:04:02.415Z,5.7
2023-05-09T04:05:02.255Z,5.6
2023-05-09T04:06:02.376Z,5.7
2023-05-09T04:07:01.284Z,5.7
2023-05-09T04:08:02.331Z,5.7
2023-05-09T04:09:02.250Z,5.7
2023-05-09T04:10:02.318Z,5.8
2023-05-09T04:11:02.218Z,5.9
2023-05-09T04:12:02.276Z,6
2023-05-09T04:13:02.157Z,6
2023-05-09T04:14:02.260Z,5.9
2023-05-09T04:15:02.135Z,6
2023-05-09T04:16:02.307Z,5.9
2023-05-09T04:17:02.352Z,6
2023-05-09T04:18:01.466Z,6
2023-05-09T04:19:01.335Z,6
2023-05-09T04:20:01.374Z,6.1
2023-05-09T04:21:02.320Z,6.1
2023-05-09T04:22:02.228Z,6.2
2023-05-09T04:23:02.333Z,6.1
2023-05-09T04:24:02.248Z,6
2023-05-09T04:25:02.338Z,6.2
2023-05-09T04:26:02.231Z,6.2
2023-05-09T04:27:02.308Z,6.3
2023-05-09T04:28:02.253Z,6.2
2023-05-09T04:29:02.270Z,6.3
2023-05-09T04:30:02.189Z,6.3
2023-05-09T04:31:02.332Z,6.3
2023-05-09T04:32:02.367Z,6.3
2023-05-09T04:33:01.442Z,6.3
2023-05-09T04:34:02.406Z,6.3
2023-05-09T04:35:01.303Z,6.3
2023-05-09T04:36:02.360Z,6.3
2023-05-09T04:37:02.271Z,6.5
2023-05-09T04:38:02.284Z,6.5
2023-05-09T04:39:02.252Z,6.6
2023-05-09T04:40:02.322Z,6.6
2023-05-09T04:41:02.255Z,6.7
2023-05-09T04:42:02.300Z,6.8
2023-05-09T04:43:02.263Z,6.7
2023-05-09T04:44:02.301Z,6.8
2023-05-09T04:45:02.193Z,6.8
2023-05-09T04:46:02.278Z,6.8
2023-05-09T04:47:02.269Z,6.9
2023-05-09T04:48:01.403Z,6.9
2023-05-09T04:49:02.319Z,7
2023-05-09T04:50:02.168Z,7
2023-05-09T04:51:02.199Z,7.1
2023-05-09T04:52:02.179Z,7.1
2023-05-09T04:53:02.233Z,7.2
2023-05-09T04:54:02.116Z,7.2
2023-05-09T04:55:02.186Z,7.3
2023-05-09T04:56:02.143Z,7.1
2023-05-09T04:57:10.145Z,7.1
2023-05-09T04:58:01.521Z,7.2
2023-05-09T04:59:01.550Z,7.3
2023-05-09T05:00:02.847Z,7.4
2023-05-09T05:01:01.701Z,7.3
2023-05-09T05:02:01.284Z,7.3
2023-05-09T05:03:02.388Z,7.4
2023-05-09T05:04:02.218Z,7.4
2023-05-09T05:05:11.406Z,7.4
2023-05-09T05:06:01.292Z,7.6
2023-05-09T05:07:02.314Z,7.6
2023-05-09T05:08:02.230Z,7.6
2023-05-09T05:09:02.332Z,7.7
2023-05-09T05:10:02.267Z,7.8
2023-05-09T05:11:02.278Z,7.8
2023-05-09T05:12:03.778Z,7.8
2023-05-09T05:13:02.078Z,7.8
2023-05-09T05:14:02.209Z,7.8
2023-05-09T05:15:02.075Z,7.8
2023-05-09T05:16:02.039Z,7.9
2023-05-09T05:17:02.043Z,7.9
2023-05-09T05:18:02.085Z,8
2023-05-09T05:19:02.118Z,7.9
2023-05-09T05:20:01.963Z,7.8
2023-05-09T05:21:01.966Z,7.9
2023-05-09T05:22:02.034Z,8
2023-05-09T05:23:01.870Z,8
2023-05-09T05:24:01.854Z,8.1
2023-05-09T05:25:01.902Z,8.2
2023-05-09T05:26:01.754Z,8.4
2023-05-09T05:27:01.713Z,8.5
2023-05-09T05:28:01.767Z,8.3
2023-05-09T05:29:01.590Z,8.4
2023-05-09T05:30:01.596Z,8.4
2023-05-09T05:31:01.447Z,8.5
2023-05-09T05:32:01.774Z,8.5
2023-05-09T05:33:01.826Z,8.5
2023-05-09T05:34:01.699Z,8.5
2023-05-09T05:35:01.656Z,8.6
2023-05-09T05:36:01.531Z,8.6
2023-05-09T05:37:01.575Z,8.6
2023-05-09T05:38:01.436Z,8.6
2023-05-09T05:39:01.501Z,8.5
2023-05-09T05:40:01.369Z,8.8
2023-05-09T05:41:01.375Z,8.8
2023-05-09T05:42:01.287Z,8.7
2023-05-09T05:43:02.298Z,8.7
2023-05-09T05:44:02.266Z,8.7
2023-05-09T05:45:02.321Z,8.9
2023-05-09T05:46:02.250Z,9
2023-05-09T05:47:02.219Z,8.8
2023-05-09T05:48:02.355Z,8.8
2023-05-09T05:49:01.384Z,8.8
2023-05-09T05:50:01.361Z,8.9
2023-05-09T05:51:02.344Z,8.8
2023-05-09T05:52:02.260Z,8.9
2023-05-09T05:53:02.370Z,9
2023-05-09T05:54:02.268Z,9.1
2023-05-09T05:55:01.329Z,9.2
2023-05-09T05:56:02.303Z,9.2
2023-05-09T05:57:02.164Z,9.1
2023-05-09T05:58:02.268Z,9.3
2023-05-09T05:59:02.141Z,9.4
2023-05-09T06:00:02.766Z,9.4
2023-05-09T06:01:01.793Z,9.4
2023-05-09T06:02:01.290Z,9.2
2023-05-09T06:03:02.393Z,9.3
2023-05-09T06:04:01.346Z,9.4
2023-05-09T06:05:02.336Z,9.5
2023-05-09T06:06:02.235Z,9.5
2023-05-09T06:07:02.251Z,9.5
2023-05-09T06:08:02.176Z,9.4
2023-05-09T06:09:02.197Z,9.5
2023-05-09T06:10:02.134Z,9.7
2023-05-09T06:11:02.250Z,9.7
2023-05-09T06:12:02.143Z,9.8
2023-05-09T06:13:02.181Z,9.9
2023-05-09T06:14:02.048Z,9.9
2023-05-09T06:15:02.049Z,9.8
2023-05-09T06:16:11.591Z,9.9
2023-05-09T06:17:02.085Z,10.1
2023-05-09T06:18:02.061Z,10.1
2023-05-09T06:19:01.964Z,10.2
2023-05-09T06:20:01.926Z,10
2023-05-09T06:21:01.998Z,10.1
2023-05-09T06:22:01.861Z,10.1
2023-05-09T06:23:01.811Z,10.1
2023-05-09T06:24:10.111Z,10.2
2023-05-09T06:25:01.374Z,10.2
2023-05-09T06:26:01.418Z,10.2
2023-05-09T06:27:01.248Z,10.4
2023-05-09T06:28:02.323Z,10.5
2023-05-09T06:29:02.301Z,10.5
2023-05-09T06:30:06.136Z,10.4
2023-05-09T06:31:01.282Z,10.6
2023-05-09T06:32:02.160Z,10.6
2023-05-09T06:33:02.353Z,10.4
2023-05-09T06:34:02.213Z,10.6
2023-05-09T06:35:02.276Z,10.7
2023-05-09T06:36:02.155Z,10.8
2023-05-09T06:37:02.176Z,10.8
2023-05-09T06:38:02.078Z,10.9
2023-05-09T06:39:02.148Z,10.7
2023-05-09T06:40:02.036Z,10.8
2023-05-09T06:41:02.079Z,10.8
2023-05-09T06:42:01.946Z,10.7
2023-05-09T06:43:01.881Z,10.9
2023-05-09T06:44:01.935Z,11.1
2023-05-09T06:45:01.826Z,11
2023-05-09T06:46:01.855Z,11
2023-05-09T06:47:01.970Z,11.1
2023-05-09T06:48:02.050Z,11.2
2023-05-09T06:49:01.955Z,11.1
2023-05-09T06:50:01.889Z,11.1
2023-05-09T06:51:01.918Z,11.2
2023-05-09T06:52:01.812Z,11.3
2023-05-09T06:53:01.731Z,11.2
2023-05-09T06:54:01.728Z,11.3
2023-05-09T06:55:01.540Z,11.5
2023-05-09T06:56:01.525Z,11.5
2023-05-09T06:57:01.575Z,11.6
2023-05-09T06:58:01.450Z,11.5
2023-05-09T06:59:01.399Z,11.8
2023-05-09T07:00:02.385Z,11.7
2023-05-09T07:01:02.259Z,11.6
2023-05-09T07:02:02.136Z,11.8
2023-05-09T07:03:02.135Z,11.8
2023-05-09T07:04:01.982Z,11.5
2023-05-09T07:05:01.953Z,11.7
2023-05-09T07:06:01.981Z,11.7
2023-05-09T07:07:01.822Z,11.7
2023-05-09T07:08:01.778Z,11.6
2023-05-09T07:09:01.834Z,11.5
2023-05-09T07:11:01.635Z,11.9
2023-05-09T07:12:01.736Z,11.9
2023-05-09T07:13:01.549Z,11.9
2023-05-09T07:14:01.692Z,12
2023-05-09T07:15:01.450Z,11.9
2023-05-09T07:16:01.524Z,12.1
2023-05-09T07:17:14.112Z,12.1
2023-05-09T07:18:01.654Z,12.2
2023-05-09T07:19:01.677Z,12.3
2023-05-09T07:20:01.524Z,12.3
2023-05-09T07:21:01.567Z,12.1
2023-05-09T07:22:01.393Z,12.1
2023-05-09T07:23:01.471Z,12.2
2023-05-09T07:24:01.393Z,12.3
2023-05-09T07:25:01.467Z,12.3
2023-05-09T07:26:01.339Z,12.3
2023-05-09T07:27:01.385Z,12.3
2023-05-09T07:28:02.357Z,12.2
2023-05-09T07:29:02.217Z,12.3
2023-05-09T07:30:01.990Z,12.2
2023-05-09T07:31:01.830Z,12.2
2023-05-09T07:32:01.809Z,12.1
2023-05-09T07:33:01.931Z,12.3
2023-05-09T07:34:01.768Z,12
2023-05-09T07:35:01.775Z,12.1
2023-05-09T07:36:01.625Z,12.4
2023-05-09T07:37:01.676Z,12.6
2023-05-09T07:38:01.796Z,12.6
2023-05-09T07:39:01.856Z,12.7
2023-05-09T07:40:01.689Z,12.8
2023-05-09T07:41:01.754Z,12.8
2023-05-09T07:42:01.584Z,12.5
2023-05-09T07:43:01.676Z,12.8
2023-05-09T07:44:01.519Z,12.8
2023-05-09T07:45:01.503Z,12.9
2023-05-09T07:46:01.377Z,12.7
2023-05-09T07:47:01.638Z,12.9
2023-05-09T07:48:01.725Z,13
2023-05-09T07:49:01.548Z,13.1
2023-05-09T07:50:01.599Z,13.1
2023-05-09T07:51:01.509Z,13
2023-05-09T07:52:01.518Z,12.9
2023-05-09T07:53:01.426Z,12.7
2023-05-09T07:54:01.429Z,12.6
2023-05-09T07:55:01.275Z,12.8
2023-05-09T07:56:02.355Z,12.8
2023-05-09T07:57:02.255Z,12.9
2023-05-09T07:58:02.322Z,12.8
2023-05-09T07:59:02.217Z,12.9
2023-05-09T08:00:02.827Z,13
2023-05-09T08:01:01.698Z,12.7
2023-05-09T08:02:01.971Z,13
2023-05-09T08:03:02.048Z,12.9
2023-05-09T08:04:02.395Z,12.5
2023-05-09T08:05:01.309Z,12.8
2023-05-09T08:06:01.363Z,12.9
2023-05-09T08:07:02.375Z,12.6
2023-05-09T08:08:02.222Z,12.7
2023-05-09T08:09:02.289Z,12.8
2023-05-09T08:10:02.142Z,13
2023-05-09T08:11:02.196Z,13.1
2023-05-09T08:12:02.065Z,13.3
2023-05-09T08:13:02.194Z,13.3
2023-05-09T08:14:02.083Z,13.5
2023-05-09T08:15:02.065Z,13.5
2023-05-09T08:16:02.169Z,13.6
2023-05-09T08:17:02.010Z,13.7
2023-05-09T08:18:02.022Z,13.5
2023-05-09T08:19:02.037Z,13.4
2023-05-09T08:20:01.919Z,13.4
2023-05-09T08:21:01.831Z,13.4
2023-05-09T08:22:01.860Z,13.5
2023-05-09T08:23:01.704Z,13.6
2023-05-09T08:24:01.757Z,13.7
2023-05-09T08:25:01.655Z,13.7
2023-05-09T08:26:01.700Z,13.7
2023-05-09T08:27:01.552Z,13.6
2023-05-09T08:28:01.578Z,13.5
2023-05-09T08:29:01.454Z,13.8
2023-05-09T08:30:01.442Z,13.9
2023-05-09T08:31:01.348Z,13.7
2023-05-09T08:32:01.444Z,13.7
2023-05-09T08:33:01.561Z,13.9
2023-05-09T08:34:01.366Z,13.8
2023-05-09T08:35:01.455Z,13.7
2023-05-09T08:36:01.417Z,13.7
2023-05-09T08:37:02.311Z,13.4
2023-05-09T08:38:02.222Z,13.5
2023-05-09T08:39:02.306Z,13.6
2023-05-09T08:40:02.185Z,13.7
2023-05-09T08:41:02.206Z,13.6
2023-05-09T08:42:02.176Z,13.8
2023-05-09T08:43:02.255Z,14.2
2023-05-09T08:44:02.131Z,14.5
2023-05-09T08:45:02.249Z,14.3
2023-05-09T08:46:02.128Z,14.1
2023-05-09T08:47:02.003Z,14
2023-05-09T08:48:02.075Z,13.9
2023-05-09T08:49:01.903Z,14
2023-05-09T08:50:01.882Z,13.9
2023-05-09T08:51:01.957Z,14.1
2023-05-09T08:52:01.924Z,14.3
2023-05-09T08:53:01.798Z,14
2023-05-09T08:54:01.881Z,14.1
2023-05-09T08:55:01.742Z,14.1
2023-05-09T08:56:01.772Z,14
2023-05-09T08:57:01.635Z,14.4
2023-05-09T08:58:01.669Z,14.6
2023-05-09T08:59:01.602Z,14.5
2023-05-09T09:00:02.799Z,14.6
2023-05-09T09:01:01.667Z,14.4
2023-05-09T09:02:01.360Z,14.3
2023-05-09T09:03:02.403Z,14.1
2023-05-09T09:04:02.220Z,14.3
2023-05-09T09:05:02.316Z,14.7
2023-05-09T09:06:02.180Z,14.8
2023-05-09T09:07:02.317Z,14.8
2023-05-09T09:08:02.216Z,15
2023-05-09T09:09:02.278Z,14.9
2023-05-09T09:10:02.219Z,14.4
2023-05-09T09:11:02.289Z,14.7
2023-05-09T09:12:02.148Z,14.7
2023-05-09T09:13:02.257Z,14.9
2023-05-09T09:14:02.107Z,14.8
2023-05-09T09:15:02.193Z,14.7
2023-05-09T09:16:02.077Z,14.6
2023-05-09T09:17:01.934Z,14.6
2023-05-09T09:18:02.018Z,14.9
2023-05-09T09:19:01.807Z,14.9
2023-05-09T09:20:01.767Z,15.3
2023-05-09T09:21:01.764Z,15
2023-05-09T09:22:01.670Z,15.4
2023-05-09T09:23:01.676Z,15.3
2023-05-09T09:24:01.584Z,15.1
2023-05-09T09:25:01.622Z,14.4
2023-05-09T09:26:01.534Z,14.9
2023-05-09T09:27:01.571Z,14.6
2023-05-09T09:28:01.427Z,14.8
2023-05-09T09:29:01.482Z,15
2023-05-09T09:30:01.278Z,15.1
2023-05-09T09:31:02.308Z,15.2
2023-05-09T09:32:02.102Z,15.4
2023-05-09T09:33:02.150Z,15
2023-05-09T09:34:01.996Z,15.2
2023-05-09T09:35:01.948Z,15.6
2023-05-09T09:36:01.998Z,15.6
2023-05-09T09:37:01.904Z,15.6
2023-05-09T09:38:01.889Z,15.6
2023-05-09T09:39:01.897Z,15.7
2023-05-09T09:40:01.792Z,15.7
2023-05-09T09:41:01.732Z,15.4
2023-05-09T09:42:01.747Z,15.3
2023-05-09T09:43:01.663Z,15.6
2023-05-09T09:44:01.670Z,15.6
2023-05-09T09:45:01.574Z,15.1
2023-05-09T09:46:01.534Z,15.1
2023-05-09T09:47:01.474Z,15.2
2023-05-09T09:48:01.531Z,15.6
2023-05-09T09:49:01.368Z,15.8
2023-05-09T09:50:01.379Z,15.5
2023-05-09T09:51:02.297Z,15.6
2023-05-09T09:52:02.253Z,15.7
2023-05-09T09:53:02.316Z,15.9
2023-05-09T09:54:02.189Z,15.7
2023-05-09T09:55:02.290Z,16.1
2023-05-09T09:56:02.174Z,15.8
2023-05-09T09:57:02.252Z,15.8
2023-05-09T09:58:02.131Z,15.8
2023-05-09T09:59:02.162Z,16.1
2023-05-09T10:00:02.077Z,16.3
2023-05-09T10:01:02.140Z,16.2
2023-05-09T10:02:05.013Z,15.8
2023-05-09T10:03:02.045Z,15.8
2023-05-09T10:04:02.013Z,16
2023-05-09T10:05:01.858Z,16.1
2023-05-09T10:06:01.789Z,16.5
2023-05-09T10:07:01.838Z,16.6
2023-05-09T10:08:01.697Z,16.6
2023-05-09T10:09:01.765Z,16.8
2023-05-09T10:10:01.626Z,17.1
2023-05-09T10:11:01.619Z,17.1
2023-05-09T10:12:01.520Z,17.3
2023-05-09T10:13:01.608Z,17.2
2023-05-09T10:14:01.413Z,17.4
2023-05-09T10:15:01.443Z,17.3
2023-05-09T10:16:01.421Z,17.3
2023-05-09T10:17:01.696Z,17.1
2023-05-09T10:18:01.907Z,17
2023-05-09T10:19:02.012Z,16.9
2023-05-09T10:20:01.983Z,16.9
2023-05-09T10:21:01.968Z,17
2023-05-09T10:22:01.867Z,16.6
2023-05-09T10:23:01.807Z,16.8
2023-05-09T10:24:01.884Z,16.7
2023-05-09T10:25:01.673Z,16.9
2023-05-09T10:26:01.715Z,16.9
2023-05-09T10:27:01.632Z,16.7
2023-05-09T10:28:01.665Z,16.8
2023-05-09T10:29:01.505Z,17.1
2023-05-09T10:30:01.534Z,17.2
2023-05-09T10:31:01.375Z,17.1
2023-05-09T10:32:02.190Z,16.6
2023-05-09T10:33:02.277Z,16.5
2023-05-09T10:34:02.121Z,16.5
2023-05-09T10:35:02.121Z,16.3
2023-05-09T10:36:02.062Z,16.7
2023-05-09T10:37:02.147Z,17
2023-05-09T10:38:02.081Z,16.9
2023-05-09T10:39:02.143Z,17
2023-05-09T10:40:02.005Z,17.1
2023-05-09T10:41:02.123Z,17
2023-05-09T10:42:02.041Z,17.7
2023-05-09T10:43:02.003Z,17.6
2023-05-09T10:44:02.071Z,17.5
2023-05-09T10:45:01.939Z,17.6
2023-05-09T10:46:01.921Z,17.7
2023-05-09T10:47:02.135Z,17.4
2023-05-09T10:48:02.127Z,17.1
2023-05-09T10:49:01.945Z,17.1
2023-05-09T10:50:01.945Z,17
2023-05-09T10:51:01.999Z,17
2023-05-09T10:52:01.546Z,17
2023-05-09T10:53:01.600Z,17.4
2023-05-09T10:54:01.444Z,17.8
2023-05-09T10:55:01.510Z,17.7
2023-05-09T10:56:01.362Z,17.6
2023-05-09T10:57:01.398Z,17.5
2023-05-09T10:58:02.382Z,18.1
2023-05-09T10:59:02.260Z,18.2
2023-05-09T11:00:02.349Z,18.4
2023-05-09T11:01:02.195Z,18
2023-05-09T11:02:02.131Z,17.5
2023-05-09T11:03:02.288Z,17.8
2023-05-09T11:04:02.108Z,17.7
2023-05-09T11:05:02.090Z,18.3
2023-05-09T11:06:01.951Z,18.1
2023-05-09T11:07:01.893Z,18.2
2023-05-09T11:08:01.936Z,17.5
2023-05-09T11:09:01.812Z,18.2
2023-05-09T11:10:01.781Z,17.9
2023-05-09T11:11:01.826Z,17.8
2023-05-09T11:12:01.681Z,17.9
2023-05-09T11:13:01.758Z,18.2
2023-05-09T11:14:01.591Z,18.1
2023-05-09T11:15:01.631Z,17.7
2023-05-09T11:16:01.517Z,17.6
2023-05-09T11:17:01.773Z,17.7
2023-05-09T11:18:01.833Z,17.7
2023-05-09T11:19:01.656Z,18
2023-05-09T11:20:01.692Z,18.5
2023-05-09T11:21:01.541Z,18.6
2023-05-09T11:22:01.611Z,17.9
2023-05-09T11:23:01.456Z,18.3
2023-05-09T11:24:01.521Z,18.6
2023-05-09T11:25:01.371Z,18.8
2023-05-09T11:26:01.438Z,19
2023-05-09T11:27:02.377Z,19.6
2023-05-09T11:28:02.272Z,19.6
2023-05-09T11:29:02.287Z,19.6
2023-05-09T11:30:02.221Z,19.1
2023-05-09T11:31:02.289Z,19.5
2023-05-09T11:32:02.025Z,19.4
2023-05-09T11:33:02.082Z,19.3
2023-05-09T11:34:01.982Z,18.9
2023-05-09T11:35:01.852Z,18.4
2023-05-09T11:36:01.912Z,18.6
2023-05-09T11:37:01.823Z,18.8
2023-05-09T11:38:01.742Z,18.9
2023-05-09T11:39:01.796Z,18.2
2023-05-09T11:40:01.652Z,18.2
2023-05-09T11:41:01.636Z,18.9
2023-05-09T11:42:01.533Z,18.2
2023-05-09T11:43:01.591Z,18.5
2023-05-09T11:44:01.471Z,18.7
2023-05-09T11:45:01.457Z,18.7
2023-05-09T11:46:01.341Z,18.3
2023-05-09T11:47:01.368Z,18.8
2023-05-09T11:48:01.609Z,18.3
2023-05-09T11:49:01.470Z,19.3
2023-05-09T11:50:01.324Z,19.5
2023-05-09T11:51:01.899Z,20
2023-05-09T11:52:01.845Z,19.7
2023-05-09T11:53:01.989Z,19.7
2023-05-09T11:54:01.756Z,19.5
2023-05-09T11:55:01.793Z,19.5
2023-05-09T11:56:01.688Z,19.5
2023-05-09T11:57:01.745Z,19.7
2023-05-09T11:58:01.588Z,20.2
2023-05-09T11:59:01.666Z,19.4
2023-05-09T12:00:01.520Z,19.6
2023-05-09T12:01:01.528Z,19.6
2023-05-09T12:02:02.393Z,19.5
2023-05-09T12:03:02.252Z,19.3
2023-05-09T12:04:02.363Z,19.3
2023-05-09T12:05:01.435Z,19.2
2023-05-09T12:06:01.442Z,18.9
2023-05-09T12:07:01.358Z,19.1
2023-05-09T12:08:01.332Z,19
2023-05-09T12:09:02.284Z,19.6
2023-05-09T12:10:02.216Z,19.9
2023-05-09T12:11:02.254Z,19.7
2023-05-09T12:12:02.151Z,19.7
2023-05-09T12:13:02.190Z,19.9
2023-05-09T12:14:02.041Z,19.6
2023-05-09T12:15:02.102Z,18.8
2023-05-09T12:16:01.982Z,19.1
2023-05-09T12:17:01.613Z,19.4
2023-05-09T12:18:01.674Z,19.6
2023-05-09T12:19:01.520Z,19.5
2023-05-09T12:20:01.533Z,19.7
2023-05-09T12:21:01.386Z,19.6
2023-05-09T12:22:01.418Z,20
2023-05-09T12:23:01.264Z,19.6
2023-05-09T12:24:02.327Z,19.6
2023-05-09T12:25:02.194Z,19.9
2023-05-09T12:26:02.231Z,19.6
2023-05-09T12:27:02.137Z,19.8
2023-05-09T12:28:02.197Z,19.3
2023-05-09T12:29:02.062Z,19.2
2023-05-09T12:30:02.196Z,19.5
2023-05-09T12:31:02.005Z,19.8
2023-05-09T12:32:02.088Z,20.2
2023-05-09T12:33:02.142Z,19.9
2023-05-09T12:34:01.978Z,20.2
2023-05-09T12:35:01.933Z,20.2
2023-05-09T12:36:01.954Z,20.3
2023-05-09T12:37:01.863Z,19.7
2023-05-09T12:38:01.816Z,19.7
2023-05-09T12:39:01.869Z,19.8
2023-05-09T12:40:02.089Z,18.8
2023-05-09T12:41:03.457Z,18.5
2023-05-09T12:42:02.242Z,18.2
2023-05-09T12:43:02.134Z,18.5
2023-05-09T12:44:01.990Z,18.6
2023-05-09T12:45:02.033Z,18.3
2023-05-09T12:46:01.924Z,18.2
2023-05-09T12:47:02.009Z,18.3
2023-05-09T12:48:02.118Z,18.4
2023-05-09T12:49:02.244Z,18.3
2023-05-09T12:50:02.095Z,17.6
2023-05-09T12:51:02.175Z,17.6
2023-05-09T12:52:04.609Z,17.7
2023-05-09T12:53:03.709Z,18
2023-05-09T12:54:01.633Z,17.7
2023-05-09T12:55:01.478Z,17.4
2023-05-09T12:56:01.510Z,16.9
2023-05-09T12:57:01.366Z,17.6
2023-05-09T12:58:01.420Z,18.3
2023-05-09T12:59:01.580Z,18.5
2023-05-09T13:00:01.706Z,18.5
2023-05-09T13:01:01.617Z,18.8
2023-05-09T13:02:01.597Z,18.6
2023-05-09T13:03:01.840Z,18.5
2023-05-09T13:04:01.967Z,18.9
2023-05-09T13:05:01.957Z,19.3
2023-05-09T13:06:01.968Z,19.5
2023-05-09T13:07:01.870Z,19.6
2023-05-09T13:08:01.830Z,19.5
2023-05-09T13:09:02.000Z,19.4
2023-05-09T13:10:01.815Z,19.6
2023-05-09T13:11:14.651Z,19.6
2023-05-09T13:12:01.747Z,19.6
2023-05-09T13:13:01.838Z,20.4
2023-05-09T13:14:01.645Z,20.2
2023-05-09T13:15:01.659Z,20.6
2023-05-09T13:16:01.470Z,20.4
2023-05-09T13:17:01.334Z,20.3
2023-05-09T13:18:02.386Z,20.4
2023-05-09T13:19:02.249Z,20
2023-05-09T13:20:02.343Z,20
2023-05-09T13:21:02.208Z,20.3
2023-05-09T13:22:02.255Z,19.8
2023-05-09T13:23:02.113Z,19.8
2023-05-09T13:24:02.364Z,19.8
2023-05-09T13:25:02.092Z,19.9
2023-05-09T13:26:02.178Z,19.6
2023-05-09T13:27:01.987Z,19.6
2023-05-09T13:28:01.995Z,19.5
2023-05-09T13:29:02.011Z,18.8
2023-05-09T13:30:01.975Z,18.7
2023-05-09T13:31:01.930Z,18.4
2023-05-09T13:32:02.038Z,18.4
2023-05-09T13:33:09.485Z,18.2
2023-05-09T13:34:02.215Z,19.1
2023-05-09T13:35:02.266Z,19.3